Time;durP1;ratioP1;P1;durP2;ratioP2;P2;SDS_P1;SDS_P2;PMS_P1;PMS_P2;Temp;Humidity;BMP_temperature;BMP_pressure;BME280_temperature;BME280_humidity;BME280_pressure;Samples;Min_cycle;Max_cycle;Signal;HPM_P1;HPM_P2
2024/01/24 00:01:13;;;;;;;4.57;2.30;;;13.40;85.30;;;;;;5095766;28;20391;-73
2024/01/24 00:03:39;;;;;;;5.28;2.30;;;13.50;85.30;;;;;;5096573;28;20126;-73
2024/01/24 00:06:05;;;;;;;6.97;2.38;;;13.40;85.20;;;;;;5095724;28;20536;-73
2024/01/24 00:08:30;;;;;;;8.18;2.50;;;13.50;85.20;;;;;;5095037;28;20026;-73
2024/01/24 00:10:56;;;;;;;7.55;2.40;;;13.50;85.30;;;;;;5095659;28;20020;-73
2024/01/24 00:13:22;;;;;;;7.55;2.70;;;13.50;85.20;;;;;;5094648;28;20352;-73
2024/01/24 00:15:48;;;;;;;6.60;2.28;;;13.50;85.20;;;;;;5096689;28;20047;-73
2024/01/24 00:18:13;;;;;;;6.63;2.53;;;13.60;85.20;;;;;;5094985;28;20076;-73
2024/01/24 00:20:39;;;;;;;5.90;2.50;;;13.60;85.10;;;;;;5095388;28;20440;-73
2024/01/24 00:23:05;;;;;;;6.28;2.28;;;13.60;85.10;;;;;;5094048;28;20467;-73
2024/01/24 00:25:31;;;;;;;6.03;2.25;;;13.60;85.10;;;;;;5095198;28;20031;-73
2024/01/24 00:27:56;;;;;;;5.50;2.20;;;13.60;85.10;;;;;;5094056;28;20047;-73
2024/01/24 00:30:22;;;;;;;5.53;2.13;;;13.70;85.10;;;;;;5095208;28;20027;-73
2024/01/24 00:32:48;;;;;;;6.28;2.10;;;13.60;85.00;;;;;;5094558;28;20123;-73
2024/01/24 00:35:15;;;;;;;5.13;2.20;;;13.60;85.00;;;;;;5094116;28;20012;-73
2024/01/24 00:37:40;;;;;;;4.15;1.70;;;13.60;84.90;;;;;;5093881;28;20150;-73
2024/01/24 00:40:07;;;;;;;5.57;1.85;;;13.70;85.00;;;;;;5094847;28;20070;-73
2024/01/24 00:42:33;;;;;;;3.42;1.58;;;13.70;84.90;;;;;;5092252;28;20032;-73
2024/01/24 00:44:59;;;;;;;3.78;1.70;;;13.70;84.80;;;;;;5094906;28;20016;-73
2024/01/24 00:47:25;;;;;;;4.13;1.73;;;13.70;84.80;;;;;;5094668;28;20388;-73
2024/01/24 00:49:50;;;;;;;4.70;1.95;;;13.80;84.80;;;;;;5093699;28;20028;-73
2024/01/24 00:52:16;;;;;;;6.00;1.88;;;13.70;84.70;;;;;;5094648;28;20027;-73
2024/01/24 00:54:42;;;;;;;4.45;1.85;;;13.70;84.60;;;;;;5095455;28;20024;-73
2024/01/24 00:57:07;;;;;;;5.13;1.98;;;13.80;84.70;;;;;;5094695;28;20036;-73
2024/01/24 00:59:33;;;;;;;3.00;1.30;;;13.80;84.60;;;;;;5093253;28;20032;-73
2024/01/24 01:01:59;;;;;;;4.22;1.70;;;13.80;84.60;;;;;;5093822;28;20032;-73
2024/01/24 01:04:25;;;;;;;3.55;1.30;;;13.80;84.60;;;;;;5092715;28;20040;-73
2024/01/24 01:06:51;;;;;;;3.40;1.20;;;13.80;84.60;;;;;;5094317;28;20048;-73
2024/01/24 01:09:16;;;;;;;3.45;1.40;;;13.80;84.60;;;;;;5076445;28;20095;-73
2024/01/24 01:11:42;;;;;;;3.60;1.35;;;13.80;84.60;;;;;;5094208;28;20122;-73
2024/01/24 01:14:08;;;;;;;1.92;1.20;;;13.80;84.60;;;;;;5093883;28;20119;-73
2024/01/24 01:16:33;;;;;;;2.58;1.33;;;13.80;84.60;;;;;;5094253;28;20078;-73
2024/01/24 01:18:59;;;;;;;2.92;1.30;;;13.80;84.70;;;;;;5094091;28;20039;-73
2024/01/24 01:21:25;;;;;;;2.75;1.33;;;13.80;84.70;;;;;;5094091;28;20032;-73
2024/01/24 01:23:51;;;;;;;3.13;1.48;;;13.80;84.80;;;;;;5094009;28;20057;-73
2024/01/24 01:26:16;;;;;;;2.40;1.15;;;13.70;84.80;;;;;;5092843;28;20020;-73
2024/01/24 01:28:42;;;;;;;3.03;1.20;;;13.70;84.90;;;;;;5093639;28;20032;-73
2024/01/24 01:31:08;;;;;;;2.67;1.10;;;13.70;85.10;;;;;;5093351;28;20039;-73
2024/01/24 01:33:34;;;;;;;1.50;1.00;;;13.70;85.30;;;;;;5092661;28;20047;-72
2024/01/24 01:35:59;;;;;;;3.25;1.40;;;13.60;85.30;;;;;;5092465;28;20111;-72
2024/01/24 01:38:25;;;;;;;2.47;1.20;;;13.70;85.60;;;;;;5093884;28;20100;-72
2024/01/24 01:40:51;;;;;;;1.83;1.10;;;13.70;85.70;;;;;;5093847;28;20520;-72
2024/01/24 01:43:16;;;;;;;2.58;1.17;;;13.60;85.80;;;;;;5093791;28;20063;-72
2024/01/24 01:45:42;;;;;;;2.58;1.40;;;13.60;85.90;;;;;;5091713;28;20051;-72
2024/01/24 01:48:12;;;;;;;1.73;1.23;;;13.60;86.00;;;;;;5092181;28;20046;-72
2024/01/24 01:50:38;;;;;;;2.88;1.30;;;13.60;86.10;;;;;;5093574;28;21242;-71
2024/01/24 01:53:05;;;;;;;2.65;1.42;;;13.50;86.10;;;;;;5092622;28;20111;-71
2024/01/24 01:55:34;;;;;;;2.72;1.38;;;13.60;86.90;;;;;;5100172;28;20360;-71
2024/01/24 01:58:01;;;;;;;2.92;1.40;;;13.50;86.30;;;;;;5093344;28;20026;-71
2024/01/24 02:00:27;;;;;;;1.77;1.10;;;13.60;86.50;;;;;;5093228;28;20312;-71
2024/01/24 02:02:53;;;;;;;2.55;1.10;;;13.60;86.50;;;;;;5093062;28;20099;-71
2024/01/24 02:05:19;;;;;;;3.30;1.27;;;13.60;86.50;;;;;;5091831;28;20054;-71
2024/01/24 02:07:45;;;;;;;2.38;1.40;;;13.60;86.70;;;;;;5091971;28;20462;-71
2024/01/24 02:10:12;;;;;;;2.13;1.25;;;13.50;86.70;;;;;;5092872;28;20020;-71
2024/01/24 02:12:38;;;;;;;1.98;1.27;;;13.50;86.80;;;;;;5101567;28;20027;-71
2024/01/24 02:15:04;;;;;;;1.90;1.30;;;13.50;86.80;;;;;;5091488;28;20020;-71
2024/01/24 02:17:30;;;;;;;1.27;1.17;;;13.50;86.90;;;;;;5090155;28;20039;-72
2024/01/24 02:19:56;;;;;;;3.05;1.40;;;13.50;86.90;;;;;;5091347;28;20039;-71
2024/01/24 02:22:21;;;;;;;2.72;1.40;;;13.50;86.90;;;;;;5092967;28;20038;-71
2024/01/24 02:24:47;;;;;;;2.22;1.45;;;13.50;87.00;;;;;;5089420;28;20035;-71
2024/01/24 02:27:13;;;;;;;2.20;1.40;;;13.50;87.00;;;;;;5092918;28;20024;-71
2024/01/24 02:29:39;;;;;;;2.80;1.50;;;13.50;87.10;;;;;;5091813;28;20024;-71
2024/01/24 02:32:05;;;;;;;3.05;1.45;;;13.50;87.20;;;;;;5091958;28;20043;-72
2024/01/24 02:34:31;;;;;;;2.45;1.50;;;13.50;87.20;;;;;;5091937;28;20100;-72
2024/01/24 02:36:57;;;;;;;2.45;1.33;;;13.50;87.30;;;;;;5091848;28;20109;-72
2024/01/24 02:39:23;;;;;;;3.03;1.48;;;13.50;87.30;;;;;;5091892;28;20433;-71
2024/01/24 02:41:49;;;;;;;2.92;1.60;;;13.50;87.30;;;;;;5099452;28;20032;-71
2024/01/24 02:44:14;;;;;;;1.88;1.30;;;13.50;87.40;;;;;;5093155;28;20051;-71
2024/01/24 02:46:40;;;;;;;1.80;1.23;;;13.50;87.40;;;;;;5092123;28;20036;-72
2024/01/24 02:49:06;;;;;;;2.92;1.35;;;13.50;87.40;;;;;;5075007;28;20024;-72
2024/01/24 02:51:32;;;;;;;1.35;1.00;;;13.50;87.40;;;;;;5091482;28;20085;-72
2024/01/24 02:53:57;;;;;;;3.28;1.20;;;13.50;87.40;;;;;;5099257;28;20038;-72
2024/01/24 02:56:23;;;;;;;2.10;1.20;;;13.50;87.40;;;;;;5092510;28;20089;-72
2024/01/24 02:58:49;;;;;;;2.05;1.23;;;13.50;87.40;;;;;;5093118;28;20069;-72
2024/01/24 03:01:15;;;;;;;2.78;1.20;;;13.50;87.40;;;;;;5096810;28;20353;-72
2024/01/24 03:03:43;;;;;;;1.52;1.20;;;13.50;87.30;;;;;;5096780;28;20620;-72
2024/01/24 03:06:09;;;;;;;3.80;1.60;;;13.60;88.00;;;;;;5096345;28;20067;-72
2024/01/24 03:08:51;;;;;;;2.30;1.20;;;13.50;87.20;;;;;;5096114;28;20063;-72
2024/01/24 03:11:17;;;;;;;1.77;1.00;;;13.50;87.20;;;;;;5093765;28;20395;-72
2024/01/24 03:13:44;;;;;;;2.40;1.35;;;13.60;87.30;;;;;;5096773;28;20116;-72
2024/01/24 03:16:09;;;;;;;3.53;1.55;;;13.60;87.30;;;;;;5096429;28;20040;-71
2024/01/24 03:18:37;;;;;;;2.72;1.20;;;13.50;87.30;;;;;;5096527;28;20344;-71
2024/01/24 03:21:08;;;;;;;4.43;1.30;;;13.50;87.20;;;;;;5096332;28;20093;-72
2024/01/24 03:23:37;;;;;;;;;;;13.50;87.20;;;;;;5096520;28;20027;-71
2024/01/24 03:26:03;;;;;;;2.67;1.20;;;13.50;87.20;;;;;;5095450;28;19912;-71
2024/01/24 03:28:29;;;;;;;3.72;1.52;;;13.50;87.10;;;;;;5094539;28;20031;-71
2024/01/24 03:30:55;;;;;;;4.40;1.60;;;13.50;87.10;;;;;;5102191;28;20039;-72
2024/01/24 03:33:21;;;;;;;4.75;1.67;;;13.50;87.10;;;;;;5094496;28;20107;-72
2024/01/24 03:35:47;;;;;;;3.20;1.23;;;13.50;87.10;;;;;;5096561;28;20052;-72
2024/01/24 03:38:13;;;;;;;2.30;1.35;;;13.50;87.00;;;;;;5095948;28;20063;-72
2024/01/24 03:40:39;;;;;;;3.78;1.40;;;13.50;86.80;;;;;;5095436;28;20024;-72
2024/01/24 03:43:05;;;;;;;4.50;1.48;;;13.50;86.70;;;;;;5095890;28;20059;-72
2024/01/24 03:45:31;;;;;;;6.28;1.92;;;13.50;86.50;;;;;;5095041;28;20055;-72
2024/01/24 03:47:57;;;;;;;7.25;2.03;;;13.50;86.40;;;;;;5095869;28;20024;-72
2024/01/24 03:50:23;;;;;;;5.00;1.30;;;13.40;86.30;;;;;;5095918;28;20024;-72
2024/01/24 03:52:49;;;;;;;4.85;1.52;;;13.40;86.20;;;;;;5095769;28;20031;-72
2024/01/24 03:55:15;;;;;;;7.95;1.52;;;13.40;86.10;;;;;;5095329;28;20028;-72
2024/01/24 03:57:40;;;;;;;7.03;1.55;;;13.40;86.00;;;;;;5094579;28;20035;-72
2024/01/24 04:00:07;;;;;;;7.70;1.70;;;13.40;85.90;;;;;;5102356;28;20109;-72
2024/01/24 04:02:37;;;;;;;4.72;0.93;;;13.40;85.80;;;;;;5095239;28;20182;-72
2024/01/24 04:05:04;;;;;;;6.78;1.40;;;13.40;85.60;;;;;;5094976;28;20492;-72
2024/01/24 04:07:29;;;;;;;4.40;1.40;;;13.30;85.50;;;;;;5082129;28;20360;-72
2024/01/24 04:09:55;;;;;;;9.25;1.80;;;13.30;85.50;;;;;;5093492;28;20028;-72
2024/01/24 04:12:21;;;;;;;9.35;1.73;;;13.30;85.40;;;;;;5094222;28;20047;-72
2024/01/24 04:14:46;;;;;;;4.40;1.58;;;13.30;85.30;;;;;;5095420;28;20035;-72
2024/01/24 04:17:12;;;;;;;10.27;1.83;;;13.30;85.20;;;;;;5102743;28;20034;-72
2024/01/24 04:19:38;;;;;;;11.43;2.38;;;13.30;85.00;;;;;;5095399;28;20034;-72
2024/01/24 04:22:03;;;;;;;9.82;2.42;;;13.30;84.80;;;;;;5095310;28;20340;-72
2024/01/24 04:24:29;;;;;;;10.32;2.22;;;13.30;84.60;;;;;;5091607;28;20122;-72
2024/01/24 04:26:55;;;;;;;10.27;1.83;;;13.30;84.50;;;;;;5094325;28;20039;-72
2024/01/24 04:29:21;;;;;;;11.95;2.40;;;13.30;84.40;;;;;;5094344;28;20020;-72
2024/01/24 04:31:47;;;;;;;15.73;3.30;;;13.20;84.20;;;;;;5094268;28;20363;-72
2024/01/24 04:34:12;;;;;;;11.80;2.72;;;13.20;84.00;;;;;;5095040;28;20032;-72
2024/01/24 04:36:38;;;;;;;11.77;2.67;;;13.20;83.90;;;;;;5092701;28;20032;-72
2024/01/24 04:39:04;;;;;;;13.95;2.45;;;13.20;83.80;;;;;;5094500;28;20027;-72
2024/01/24 04:41:30;;;;;;;11.48;3.42;;;13.10;83.50;;;;;;5092501;28;20025;-72
2024/01/24 04:43:56;;;;;;;12.68;3.42;;;13.10;83.40;;;;;;5081032;28;20061;-72
2024/01/24 04:46:21;;;;;;;19.55;3.42;;;13.10;83.30;;;;;;5092221;28;20134;-72
2024/01/24 04:48:48;;;;;;;17.17;3.78;;;13.10;83.10;;;;;;5093748;28;20035;-72
2024/01/24 04:51:14;;;;;;;20.90;3.60;;;13.10;83.00;;;;;;5100884;28;20024;-72
2024/01/24 04:53:40;;;;;;;19.30;3.92;;;13.10;82.80;;;;;;5093945;28;20028;-72
2024/01/24 04:56:06;;;;;;;13.75;3.13;;;13.10;82.60;;;;;;5093583;28;20097;-72
2024/01/24 04:58:31;;;;;;;13.00;2.75;;;13.10;82.50;;;;;;5094563;28;20035;-72
2024/01/24 05:00:57;;;;;;;16.17;4.07;;;13.10;82.30;;;;;;5076567;28;20032;-73
2024/01/24 05:03:23;;;;;;;15.60;3.72;;;13.00;82.20;;;;;;5093390;28;20035;-72
2024/01/24 05:05:49;;;;;;;18.38;3.58;;;13.00;82.10;;;;;;5093322;28;20063;-72
2024/01/24 05:08:15;;;;;;;12.00;2.67;;;13.00;82.00;;;;;;5094924;28;20028;-72
2024/01/24 05:10:40;;;;;;;13.15;3.40;;;13.00;81.90;;;;;;5093117;28;20035;-72
2024/01/24 05:13:06;;;;;;;17.65;4.50;;;13.00;81.70;;;;;;5093496;28;20024;-72
2024/01/24 05:15:32;;;;;;;16.63;3.20;;;13.00;81.70;;;;;;5092947;28;20023;-72
2024/01/24 05:17:57;;;;;;;16.85;4.07;;;13.00;81.60;;;;;;5093994;28;20050;-72
2024/01/24 05:20:23;;;;;;;17.42;3.50;;;13.00;81.30;;;;;;5092883;28;20016;-72
2024/01/24 05:22:49;;;;;;;20.83;4.18;;;12.90;81.00;;;;;;5093861;28;20064;-72
2024/01/24 05:25:15;;;;;;;17.30;4.22;;;12.90;81.00;;;;;;5093392;28;20024;-72
2024/01/24 05:27:40;;;;;;;16.52;3.60;;;12.90;80.80;;;;;;5092617;28;20063;-72
2024/01/24 05:30:07;;;;;;;16.60;3.70;;;12.90;80.60;;;;;;5092557;28;20043;-72
2024/01/24 05:32:33;;;;;;;17.15;4.55;;;12.90;80.50;;;;;;5093066;28;20024;-72
2024/01/24 05:34:59;;;;;;;18.25;4.55;;;13.00;80.30;;;;;;5094047;28;20055;-72
2024/01/24 05:37:26;;;;;;;16.85;4.25;;;13.00;80.20;;;;;;5093530;28;20059;-72
2024/01/24 05:39:53;;;;;;;13.43;3.85;;;12.90;80.00;;;;;;5094063;28;20103;-72
2024/01/24 05:42:19;;;;;;;19.58;3.45;;;12.90;79.90;;;;;;5092960;28;20498;-72
2024/01/24 05:44:44;;;;;;;20.08;4.93;;;12.90;79.60;;;;;;5093578;28;20462;-72
2024/01/24 05:47:10;;;;;;;15.43;4.35;;;12.90;79.60;;;;;;5092455;28;20059;-72
2024/01/24 05:49:37;;;;;;;14.32;3.97;;;12.90;79.40;;;;;;5102827;27;20356;-72
2024/01/24 05:52:06;;;;;;;20.20;3.92;;;12.90;79.30;;;;;;5093086;28;20027;-71
2024/01/24 05:54:32;;;;;;;24.73;4.50;;;12.90;79.00;;;;;;5092749;28;20031;-71
2024/01/24 05:56:58;;;;;;;17.40;4.63;;;12.90;78.90;;;;;;5093358;28;20456;-72
2024/01/24 05:59:23;;;;;;;19.13;4.80;;;12.90;78.80;;;;;;5092514;28;20031;-72
2024/01/24 06:01:50;;;;;;;25.38;4.82;;;12.90;78.80;;;;;;5091971;28;20035;-72
2024/01/24 06:04:16;;;;;;;16.45;4.47;;;12.80;78.60;;;;;;5092989;28;20150;-72
2024/01/24 06:06:41;;;;;;;22.83;4.72;;;12.80;78.40;;;;;;5091995;28;20107;-72
2024/01/24 06:09:07;;;;;;;23.70;5.45;;;12.80;78.20;;;;;;5092450;28;20043;-72
2024/01/24 06:11:33;;;;;;;21.67;4.78;;;12.80;78.30;;;;;;5094090;28;20080;-72
2024/01/24 06:13:59;;;;;;;17.20;4.35;;;12.80;78.20;;;;;;5093035;28;20020;-72
2024/01/24 06:16:25;;;;;;;18.80;4.63;;;12.80;78.10;;;;;;5092200;28;20024;-70
2024/01/24 06:18:50;;;;;;;22.35;4.95;;;12.80;78.10;;;;;;5091990;28;20035;-71
2024/01/24 06:21:16;;;;;;;23.60;5.40;;;12.80;77.90;;;;;;5091863;28;20024;-71
2024/01/24 06:23:42;;;;;;;20.95;4.18;;;12.80;77.70;;;;;;5092780;28;20035;-71
2024/01/24 06:26:07;;;;;;;20.75;5.45;;;12.80;77.50;;;;;;5090884;28;20040;-70
2024/01/24 06:28:33;;;;;;;26.02;5.18;;;12.80;77.20;;;;;;5092827;28;20050;-71
2024/01/24 06:30:59;;;;;;;20.05;5.65;;;12.70;77.10;;;;;;5091995;28;20070;-70
2024/01/24 06:33:25;;;;;;;19.55;4.93;;;12.70;77.10;;;;;;5091771;28;20039;-70
2024/01/24 06:35:51;;;;;;;23.10;4.82;;;12.70;77.00;;;;;;5092911;28;20099;-71
2024/01/24 06:38:17;;;;;;;23.00;5.05;;;12.70;77.00;;;;;;5092693;28;20115;-72
2024/01/24 06:40:42;;;;;;;23.90;4.80;;;12.70;77.00;;;;;;5100753;28;20102;-73
2024/01/24 06:43:11;;;;;;;25.60;5.55;;;12.70;76.90;;;;;;5074785;28;20364;-69
2024/01/24 06:45:36;;;;;;;23.65;4.68;;;12.70;77.00;;;;;;5095190;28;20016;-70
2024/01/24 06:48:02;;;;;;;18.98;4.82;;;12.70;77.00;;;;;;5093080;28;20362;-70
2024/01/24 06:50:29;;;;;;;24.05;5.65;;;12.60;76.90;;;;;;5092786;28;20031;-68
2024/01/24 06:52:55;;;;;;;23.45;5.35;;;12.60;76.80;;;;;;5093431;28;20028;-69
2024/01/24 06:55:21;;;;;;;21.40;5.18;;;12.50;76.80;;;;;;5094698;28;20070;-70
2024/01/24 06:57:47;;;;;;;19.88;5.80;;;12.60;76.90;;;;;;5093613;28;20055;-69
2024/01/24 07:00:13;;;;;;;21.65;5.93;;;12.50;76.70;;;;;;5076279;28;20055;-70
2024/01/24 07:02:38;;;;;;;25.23;5.85;;;12.50;76.60;;;;;;5093988;28;20032;-70
2024/01/24 07:05:05;;;;;;;23.00;4.22;;;12.50;76.60;;;;;;5093537;28;20097;-69
2024/01/24 07:07:31;;;;;;;21.35;5.03;;;12.50;76.60;;;;;;5094330;28;20043;-69
2024/01/24 07:09:57;;;;;;;18.60;4.90;;;12.50;76.40;;;;;;5099738;28;20020;-69
2024/01/24 07:12:23;;;;;;;28.98;6.10;;;12.40;76.30;;;;;;5098463;28;20043;-70
2024/01/24 07:14:49;;;;;;;23.00;5.25;;;12.40;76.30;;;;;;5093993;28;20341;-69
2024/01/24 07:17:15;;;;;;;24.90;5.72;;;12.40;76.10;;;;;;5093426;28;20027;-70
2024/01/24 07:19:41;;;;;;;26.08;5.25;;;12.30;75.90;;;;;;5075988;28;20020;-70
2024/01/24 07:22:07;;;;;;;26.42;6.15;;;12.30;76.00;;;;;;5092332;28;20070;-71
2024/01/24 07:24:32;;;;;;;23.92;5.40;;;12.30;76.60;;;;;;5099651;28;20352;-70
2024/01/24 07:26:58;;;;;;;27.45;5.38;;;12.30;75.80;;;;;;5092625;28;20352;-70
2024/01/24 07:29:24;;;;;;;26.52;5.93;;;12.30;75.60;;;;;;5092315;28;20039;-70
2024/01/24 07:31:50;;;;;;;23.92;5.22;;;12.30;75.40;;;;;;5092485;28;20020;-70
2024/01/24 07:34:16;;;;;;;21.88;5.35;;;12.30;75.30;;;;;;5091751;28;20031;-70
2024/01/24 07:36:42;;;;;;;21.92;5.35;;;12.30;75.20;;;;;;5092404;28;20106;-71
2024/01/24 07:39:08;;;;;;;24.83;5.28;;;12.30;75.10;;;;;;5092666;28;20032;-70
2024/01/24 07:41:34;;;;;;;21.27;5.35;;;12.20;75.00;;;;;;5092924;28;20433;-70
2024/01/24 07:44:01;;;;;;;24.50;5.45;;;12.20;74.90;;;;;;5093029;28;20486;-69
2024/01/24 07:46:27;;;;;;;23.80;4.43;;;12.20;74.80;;;;;;5096653;28;20036;-69
2024/01/24 07:48:53;;;;;;;21.27;4.78;;;12.30;74.60;;;;;;5096855;28;20074;-69
2024/01/24 07:51:22;;;;;;;25.00;5.20;;;12.30;74.40;;;;;;5104347;28;20024;-69
2024/01/24 07:53:48;;;;;;;21.08;4.55;;;12.30;74.10;;;;;;5095788;28;20036;-69
2024/01/24 07:56:15;;;;;;;21.42;4.85;;;12.30;74.10;;;;;;5088157;28;20131;-68
2024/01/24 07:58:40;;;;;;;26.15;5.55;;;12.30;74.00;;;;;;5098729;28;20473;-68
2024/01/24 08:01:09;;;;;;;22.40;5.30;;;12.30;73.90;;;;;;5096591;28;20047;-68
2024/01/24 08:03:35;;;;;;;22.77;6.30;;;12.30;73.70;;;;;;5095884;28;20337;-68
2024/01/24 08:06:01;;;;;;;20.95;5.47;;;12.30;73.60;;;;;;5096073;28;20027;-67
2024/01/24 08:08:27;;;;;;;22.50;5.43;;;12.20;73.50;;;;;;5093115;28;20023;-70
2024/01/24 08:10:53;;;;;;;23.70;4.93;;;12.20;73.40;;;;;;5076910;28;20024;-68
2024/01/24 08:13:19;;;;;;;22.42;5.25;;;12.20;73.30;;;;;;5093687;28;20028;-69
2024/01/24 08:15:48;;;;;;;23.85;4.93;;;12.20;73.30;;;;;;5094713;28;20031;-69
2024/01/24 08:18:14;;;;;;;24.45;6.38;;;12.20;73.30;;;;;;5092670;28;20024;-68
2024/01/24 08:20:40;;;;;;;23.27;5.82;;;12.20;73.00;;;;;;5093932;28;20492;-69
2024/01/24 08:23:06;;;;;;;22.83;5.57;;;12.20;72.90;;;;;;5094394;28;20047;-69
2024/01/24 08:25:31;;;;;;;23.88;4.68;;;12.20;72.80;;;;;;5095765;28;20032;-69
2024/01/24 08:27:57;;;;;;;26.92;6.22;;;12.20;72.40;;;;;;5095002;28;20063;-70
2024/01/24 08:30:23;;;;;;;27.15;5.47;;;12.20;72.30;;;;;;5094145;28;20072;-69
2024/01/24 08:32:50;;;;;;;28.70;6.32;;;12.30;72.20;;;;;;5097649;28;20020;-69
2024/01/24 08:35:16;;;;;;;23.67;5.03;;;12.20;72.00;;;;;;5097255;28;20124;-69
2024/01/24 08:37:42;;;;;;;23.00;4.88;;;12.30;71.90;;;;;;5094727;28;20427;-70
2024/01/24 08:40:10;;;;;;;19.75;6.03;;;12.30;71.80;;;;;;5093855;28;20024;-68
2024/01/24 08:42:36;;;;;;;25.52;6.28;;;12.30;71.60;;;;;;5093417;28;20035;-66
2024/01/24 08:45:02;;;;;;;19.55;4.88;;;12.30;71.50;;;;;;5094340;28;20024;-69
2024/01/24 08:47:28;;;;;;;17.20;4.38;;;12.30;71.40;;;;;;5093575;28;20147;-69
2024/01/24 08:49:56;;;;;;;23.50;5.20;;;12.30;71.10;;;;;;5093443;28;20024;-69
2024/01/24 08:52:23;;;;;;;27.73;5.05;;;12.40;71.00;;;;;;5093839;28;20024;-69
2024/01/24 08:54:49;;;;;;;19.98;5.07;;;12.50;70.80;;;;;;5095126;28;20102;-68
2024/01/24 08:57:14;;;;;;;21.25;5.28;;;12.50;70.50;;;;;;5094025;28;20183;-69
2024/01/24 08:59:40;;;;;;;19.75;4.43;;;12.50;70.40;;;;;;5095197;28;20062;-69
2024/01/24 09:02:07;;;;;;;22.88;4.82;;;12.60;70.30;;;;;;5094138;28;20114;-69
2024/01/24 09:04:33;;;;;;;22.08;5.78;;;12.60;70.10;;;;;;5093876;28;20126;-68
2024/01/24 09:06:59;;;;;;;21.13;4.45;;;12.70;70.10;;;;;;5093624;28;20486;-68
2024/01/24 09:09:25;;;;;;;22.50;4.90;;;12.60;69.90;;;;;;5095280;28;20028;-68
2024/01/24 09:11:51;;;;;;;18.02;5.10;;;12.60;69.80;;;;;;5094939;28;20027;-69
2024/01/24 09:14:17;;;;;;;20.42;4.20;;;12.60;69.80;;;;;;5094038;28;20406;-69
2024/01/24 09:16:43;;;;;;;17.38;4.65;;;12.60;69.80;;;;;;5094195;28;20028;-69
2024/01/24 09:19:09;;;;;;;21.10;5.45;;;12.70;69.60;;;;;;5101413;28;20144;-69
2024/01/24 09:21:35;;;;;;;29.33;5.18;;;12.70;69.50;;;;;;5094032;28;20043;-69
2024/01/24 09:24:00;;;;;;;20.83;4.68;;;12.70;69.30;;;;;;5093715;28;20032;-70
2024/01/24 09:26:26;;;;;;;20.35;5.28;;;12.70;69.30;;;;;;5091463;28;20034;-68
2024/01/24 09:28:52;;;;;;;22.20;5.53;;;12.80;69.30;;;;;;5094893;28;20024;-69
2024/01/24 09:31:18;;;;;;;21.30;4.70;;;12.90;69.20;;;;;;5091859;28;20053;-69
2024/01/24 09:33:43;;;;;;;22.25;5.75;;;12.90;69.00;;;;;;5094204;28;20106;-69
2024/01/24 09:36:09;;;;;;;21.27;5.45;;;13.00;68.80;;;;;;5094813;28;20024;-69
2024/01/24 09:38:35;;;;;;;17.27;4.53;;;13.00;68.70;;;;;;5093959;28;20090;-68
2024/01/24 09:41:08;;;;;;;27.95;5.43;;;13.10;68.40;;;;;;5094640;28;20023;-70
2024/01/24 09:43:39;;;;;;;20.88;4.65;;;13.20;68.10;;;;;;5094810;28;20081;-68
2024/01/24 09:46:12;;;;;;;23.98;4.70;;;13.20;68.00;;;;;;5093906;28;20109;-70
2024/01/24 09:48:39;;;;;;;21.80;5.35;;;13.20;67.90;;;;;;5093340;28;20038;-69
2024/01/24 09:51:05;;;;;;;22.98;4.70;;;13.30;67.80;;;;;;5094760;28;20058;-69
2024/01/24 09:53:33;;;;;;;19.35;5.22;;;13.40;67.70;;;;;;5094178;28;20056;-69
2024/01/24 09:56:01;;;;;;;21.83;4.88;;;13.40;67.40;;;;;;5095984;28;20039;-68
2024/01/24 09:58:27;;;;;;;19.77;4.53;;;13.40;67.20;;;;;;5092949;28;20073;-69
2024/01/24 10:00:54;;;;;;;20.02;4.57;;;13.40;67.20;;;;;;5094459;28;20379;-69
2024/01/24 10:03:20;;;;;;;24.17;5.40;;;13.40;67.00;;;;;;5093918;28;20028;-69
2024/01/24 10:05:49;;;;;;;25.98;4.85;;;13.50;67.00;;;;;;5093563;28;20016;-71
2024/01/24 10:08:15;;;;;;;18.95;5.38;;;13.50;66.80;;;;;;5093188;28;20024;-72
2024/01/24 10:10:42;;;;;;;19.90;4.70;;;13.60;66.70;;;;;;5094207;28;20027;-72
2024/01/24 10:13:08;;;;;;;25.13;5.38;;;13.70;66.10;;;;;;5094164;28;20024;-72
2024/01/24 10:15:35;;;;;;;21.60;4.78;;;13.70;65.90;;;;;;5094864;28;20174;-71
2024/01/24 10:18:01;;;;;;;20.65;4.60;;;13.80;65.90;;;;;;5095383;28;20047;-71
2024/01/24 10:20:27;;;;;;;21.02;4.40;;;13.90;65.50;;;;;;5119815;27;20023;-71
2024/01/24 10:22:53;;;;;;;23.33;4.47;;;14.00;65.50;;;;;;5094761;28;20039;-72
2024/01/24 10:25:19;;;;;;;18.52;4.78;;;14.00;65.30;;;;;;5083201;28;20137;-72
2024/01/24 10:27:45;;;;;;;19.95;5.00;;;14.00;65.10;;;;;;5091842;28;20036;-72
2024/01/24 10:30:12;;;;;;;16.17;4.38;;;14.00;65.30;;;;;;5093365;28;20081;-72
2024/01/24 10:32:41;;;;;;;18.73;4.80;;;14.00;65.20;;;;;;5095197;28;20031;-72
2024/01/24 10:35:08;;;;;;;25.77;5.15;;;14.00;65.80;;;;;;5094847;28;20055;-72
2024/01/24 10:37:34;;;;;;;20.58;4.95;;;14.10;65.10;;;;;;5094933;28;20028;-72
2024/01/24 10:40:13;;;;;;;19.83;5.00;;;14.20;65.00;;;;;;5093059;28;20055;-71
2024/01/24 10:42:42;;;;;;;21.60;5.03;;;14.10;64.50;;;;;;5093202;28;20040;-71
2024/01/24 10:45:09;;;;;;;19.85;5.32;;;14.00;64.50;;;;;;5094303;28;20043;-71
2024/01/24 10:47:35;;;;;;;23.73;5.80;;;13.90;64.40;;;;;;5094217;28;20048;-71
2024/01/24 10:50:05;;;;;;;21.65;5.22;;;13.80;64.40;;;;;;5094707;28;20055;-71
2024/01/24 10:52:34;;;;;;;17.50;5.03;;;13.70;64.80;;;;;;5092984;28;20016;-71
2024/01/24 10:55:06;;;;;;;21.83;5.78;;;13.70;64.80;;;;;;5093452;28;20016;-71
2024/01/24 10:57:32;;;;;;;;;;;13.60;64.90;;;;;;5093369;28;20039;-71
2024/01/24 10:59:59;;;;;;;18.85;5.38;;;13.60;65.10;;;;;;5093749;28;20044;-71
2024/01/24 11:02:25;;;;;;;20.70;5.22;;;13.60;65.10;;;;;;5093555;28;20358;-70
2024/01/24 11:04:52;;;;;;;19.38;5.20;;;13.60;65.10;;;;;;5093433;28;20036;-70
2024/01/24 11:07:26;;;;;;;22.77;5.32;;;13.60;65.00;;;;;;5092717;28;20028;-71
2024/01/24 11:10:05;;;;;;;21.55;5.45;;;13.60;64.90;;;;;;5089025;28;20027;-72
2024/01/24 11:12:31;;;;;;;20.02;4.72;;;13.60;64.80;;;;;;5090450;28;20016;-70
2024/01/24 11:15:07;;;;;;;19.42;4.85;;;13.60;64.90;;;;;;5085917;28;20021;-71
2024/01/24 11:17:33;;;;;;;20.10;4.68;;;13.70;64.80;;;;;;5076841;28;20160;-71
2024/01/24 11:20:03;;;;;;;20.83;4.70;;;13.70;64.80;;;;;;5076101;28;20036;-71
2024/01/24 11:22:29;;;;;;;18.60;4.33;;;13.80;64.80;;;;;;5081937;28;20448;-71
2024/01/24 11:24:55;;;;;;;28.33;5.22;;;13.80;64.70;;;;;;5082094;28;20267;-71
2024/01/24 11:27:34;;;;;;;24.40;5.43;;;13.90;64.40;;;;;;5077704;28;20032;-71
2024/01/24 11:30:06;;;;;;;21.45;4.47;;;13.80;64.20;;;;;;5079899;28;20071;-71
2024/01/24 11:32:44;;;;;;;20.15;5.57;;;13.80;64.40;;;;;;5083054;28;20109;-71
2024/01/24 11:35:32;;;;;;;23.70;5.20;;;13.70;64.40;;;;;;5082317;28;20056;-71
2024/01/24 11:38:05;;;;;;;21.42;5.00;;;13.70;64.30;;;;;;5080166;28;20032;-71
2024/01/24 11:40:37;;;;;;;20.45;5.00;;;13.70;64.40;;;;;;5088349;28;20341;-71
2024/01/24 11:43:03;;;;;;;23.70;5.22;;;13.60;64.50;;;;;;5096150;28;20032;-71
2024/01/24 11:45:30;;;;;;;17.27;4.65;;;13.60;64.70;;;;;;5096675;28;20040;-71
2024/01/24 11:47:57;;;;;;;24.52;5.18;;;13.60;64.70;;;;;;5096141;28;20040;-71
2024/01/24 11:50:23;;;;;;;22.50;4.88;;;13.50;64.70;;;;;;5095677;28;20024;-72
2024/01/24 11:52:49;;;;;;;22.42;5.65;;;13.50;64.90;;;;;;5094960;28;20365;-71
2024/01/24 11:55:15;;;;;;;20.50;4.47;;;13.50;64.90;;;;;;5096874;28;20016;-72
2024/01/24 11:57:41;;;;;;;22.90;5.13;;;13.50;64.90;;;;;;5095757;28;20028;-72
2024/01/24 12:00:09;;;;;;;17.45;3.83;;;13.40;64.90;;;;;;5095076;28;20356;-71
2024/01/24 12:02:35;;;;;;;21.48;4.88;;;13.40;64.80;;;;;;5095877;28;20379;-71
2024/01/24 12:05:01;;;;;;;18.38;4.45;;;13.40;64.80;;;;;;5096426;28;20028;-71
2024/01/24 12:07:27;;;;;;;17.58;4.50;;;13.40;64.90;;;;;;5090041;28;20039;-71
2024/01/24 12:09:53;;;;;;;24.80;5.40;;;13.30;65.00;;;;;;5090409;28;20020;-71
2024/01/24 12:12:20;;;;;;;20.15;4.53;;;13.30;65.80;;;;;;5096177;28;20028;-67
2024/01/24 12:14:46;;;;;;;17.80;4.88;;;13.40;65.10;;;;;;5096951;28;20021;-71
2024/01/24 12:17:12;;;;;;;23.65;4.22;;;13.40;65.00;;;;;;5095620;28;20027;-72
2024/01/24 12:19:42;;;;;;;24.05;4.80;;;13.50;64.90;;;;;;5079362;28;20032;-72
2024/01/24 12:22:09;;;;;;;16.25;3.88;;;13.40;64.80;;;;;;5097037;28;20039;-72
2024/01/24 12:24:42;;;;;;;18.83;4.60;;;13.40;64.90;;;;;;5090492;28;20047;-72
2024/01/24 12:27:08;;;;;;;22.15;5.28;;;13.40;64.80;;;;;;5088891;28;20392;-72
2024/01/24 12:29:34;;;;;;;17.30;4.38;;;13.50;64.80;;;;;;5096668;28;20052;-72
2024/01/24 12:32:05;;;;;;;19.05;4.90;;;13.50;64.90;;;;;;5099359;28;20036;-71
2024/01/24 12:34:31;;;;;;;19.42;4.22;;;13.50;64.80;;;;;;5095940;28;20016;-72
2024/01/24 12:36:58;;;;;;;20.58;4.32;;;13.50;64.90;;;;;;5096399;28;20039;-72